sensor_id;sensor_type;location;lat;lon;timestamp;P1;durP1;ratioP1;P2;durP2;ratioP2
16037;SDS011;8123;50.906;6.172;2023-04-23T00:00:49;42.50;;;23.70;;
16037;SDS011;8123;50.906;6.172;2023-04-23T00:03:17;37.20;;;23.40;;
16037;SDS011;8123;50.906;6.172;2023-04-23T00:05:44;40.87;;;24.73;;
16037;SDS011;8123;50.906;6.172;2023-04-23T00:08:11;43.30;;;24.67;;
16037;SDS011;8123;50.906;6.172;2023-04-23T00:10:37;41.47;;;23.90;;
16037;SDS011;8123;50.906;6.172;2023-04-23T00:13:03;38.83;;;23.00;;
16037;SDS011;8123;50.906;6.172;2023-04-23T00:15:29;42.80;;;24.37;;
16037;SDS011;8123;50.906;6.172;2023-04-23T00:17:55;46.00;;;26.43;;
16037;SDS011;8123;50.906;6.172;2023-04-23T00:20:21;42.13;;;26.33;;
16037;SDS011;8123;50.906;6.172;2023-04-23T00:22:47;42.97;;;24.43;;
16037;SDS011;8123;50.906;6.172;2023-04-23T00:25:12;48.20;;;24.83;;
16037;SDS011;8123;50.906;6.172;2023-04-23T00:27:38;50.93;;;26.03;;
16037;SDS011;8123;50.906;6.172;2023-04-23T00:30:04;40.40;;;25.33;;
16037;SDS011;8123;50.906;6.172;2023-04-23T00:32:30;42.50;;;26.43;;
16037;SDS011;8123;50.906;6.172;2023-04-23T00:34:56;41.13;;;25.97;;
16037;SDS011;8123;50.906;6.172;2023-04-23T00:37:22;44.73;;;25.40;;
16037;SDS011;8123;50.906;6.172;2023-04-23T00:39:48;42.33;;;24.77;;
16037;SDS011;8123;50.906;6.172;2023-04-23T00:42:13;41.93;;;24.83;;
16037;SDS011;8123;50.906;6.172;2023-04-23T00:44:41;47.63;;;26.73;;
16037;SDS011;8123;50.906;6.172;2023-04-23T00:47:07;45.03;;;26.80;;
16037;SDS011;8123;50.906;6.172;2023-04-23T00:49:34;42.60;;;24.90;;
16037;SDS011;8123;50.906;6.172;2023-04-23T00:52:00;44.80;;;24.77;;
16037;SDS011;8123;50.906;6.172;2023-04-23T00:54:26;53.90;;;26.73;;
16037;SDS011;8123;50.906;6.172;2023-04-23T00:56:52;44.20;;;24.40;;
16037;SDS011;8123;50.906;6.172;2023-04-23T00:59:19;43.10;;;24.90;;
16037;SDS011;8123;50.906;6.172;2023-04-23T01:01:45;48.33;;;25.67;;
16037;SDS011;8123;50.906;6.172;2023-04-23T01:04:12;47.50;;;25.07;;
16037;SDS011;8123;50.906;6.172;2023-04-23T01:06:40;47.50;;;24.20;;
16037;SDS011;8123;50.906;6.172;2023-04-23T01:09:06;41.83;;;24.17;;
16037;SDS011;8123;50.906;6.172;2023-04-23T01:11:34;48.67;;;26.07;;
16037;SDS011;8123;50.906;6.172;2023-04-23T01:14:03;46.97;;;25.10;;
16037;SDS011;8123;50.906;6.172;2023-04-23T01:16:29;48.83;;;25.17;;
16037;SDS011;8123;50.906;6.172;2023-04-23T01:18:55;36.03;;;22.23;;
16037;SDS011;8123;50.906;6.172;2023-04-23T01:21:20;41.10;;;23.97;;
16037;SDS011;8123;50.906;6.172;2023-04-23T01:23:47;41.33;;;22.67;;
16037;SDS011;8123;50.906;6.172;2023-04-23T01:26:13;42.47;;;24.67;;
16037;SDS011;8123;50.906;6.172;2023-04-23T01:28:40;44.13;;;25.47;;
16037;SDS011;8123;50.906;6.172;2023-04-23T01:31:07;43.37;;;24.57;;
16037;SDS011;8123;50.906;6.172;2023-04-23T01:33:33;43.23;;;24.00;;
16037;SDS011;8123;50.906;6.172;2023-04-23T01:36:00;42.80;;;24.13;;
16037;SDS011;8123;50.906;6.172;2023-04-23T01:38:27;40.57;;;23.10;;
16037;SDS011;8123;50.906;6.172;2023-04-23T01:40:54;44.57;;;23.80;;
16037;SDS011;8123;50.906;6.172;2023-04-23T01:43:21;45.20;;;24.20;;
16037;SDS011;8123;50.906;6.172;2023-04-23T01:45:47;40.80;;;24.07;;
16037;SDS011;8123;50.906;6.172;2023-04-23T01:48:12;44.23;;;22.77;;
16037;SDS011;8123;50.906;6.172;2023-04-23T01:50:38;43.83;;;22.73;;
16037;SDS011;8123;50.906;6.172;2023-04-23T01:53:05;39.07;;;21.90;;
16037;SDS011;8123;50.906;6.172;2023-04-23T01:55:30;40.97;;;23.27;;
16037;SDS011;8123;50.906;6.172;2023-04-23T01:57:58;40.27;;;22.40;;
16037;SDS011;8123;50.906;6.172;2023-04-23T02:00:24;33.30;;;20.20;;
16037;SDS011;8123;50.906;6.172;2023-04-23T02:02:50;32.63;;;19.03;;
16037;SDS011;8123;50.906;6.172;2023-04-23T02:05:17;31.63;;;19.53;;
16037;SDS011;8123;50.906;6.172;2023-04-23T02:07:44;30.43;;;19.23;;
16037;SDS011;8123;50.906;6.172;2023-04-23T02:10:11;32.00;;;18.40;;
16037;SDS011;8123;50.906;6.172;2023-04-23T02:12:37;34.20;;;19.83;;
16037;SDS011;8123;50.906;6.172;2023-04-23T02:15:04;30.67;;;18.40;;
16037;SDS011;8123;50.906;6.172;2023-04-23T02:17:31;34.87;;;19.10;;
16037;SDS011;8123;50.906;6.172;2023-04-23T02:19:57;27.30;;;16.60;;
16037;SDS011;8123;50.906;6.172;2023-04-23T02:22:23;29.53;;;17.13;;
16037;SDS011;8123;50.906;6.172;2023-04-23T02:24:53;26.47;;;16.83;;
16037;SDS011;8123;50.906;6.172;2023-04-23T02:27:19;21.67;;;14.80;;
16037;SDS011;8123;50.906;6.172;2023-04-23T02:29:47;23.60;;;15.53;;
16037;SDS011;8123;50.906;6.172;2023-04-23T02:32:13;29.97;;;16.33;;
16037;SDS011;8123;50.906;6.172;2023-04-23T02:34:39;25.47;;;15.47;;
16037;SDS011;8123;50.906;6.172;2023-04-23T02:37:05;18.30;;;12.57;;
16037;SDS011;8123;50.906;6.172;2023-04-23T02:39:30;21.60;;;12.80;;
16037;SDS011;8123;50.906;6.172;2023-04-23T02:41:56;17.73;;;11.87;;
16037;SDS011;8123;50.906;6.172;2023-04-23T02:44:23;17.50;;;12.23;;
16037;SDS011;8123;50.906;6.172;2023-04-23T02:46:49;20.13;;;11.07;;
16037;SDS011;8123;50.906;6.172;2023-04-23T02:49:15;17.37;;;11.47;;
16037;SDS011;8123;50.906;6.172;2023-04-23T02:51:41;16.53;;;11.50;;
16037;SDS011;8123;50.906;6.172;2023-04-23T02:54:07;19.47;;;11.80;;
16037;SDS011;8123;50.906;6.172;2023-04-23T02:56:33;14.57;;;11.17;;
16037;SDS011;8123;50.906;6.172;2023-04-23T02:58:59;13.60;;;10.50;;
16037;SDS011;8123;50.906;6.172;2023-04-23T03:01:25;16.73;;;11.50;;
16037;SDS011;8123;50.906;6.172;2023-04-23T03:03:51;15.40;;;11.87;;
16037;SDS011;8123;50.906;6.172;2023-04-23T03:06:17;17.93;;;11.30;;
16037;SDS011;8123;50.906;6.172;2023-04-23T03:08:43;18.63;;;11.43;;
16037;SDS011;8123;50.906;6.172;2023-04-23T03:11:08;18.00;;;12.13;;
16037;SDS011;8123;50.906;6.172;2023-04-23T03:13:34;20.17;;;12.83;;
16037;SDS011;8123;50.906;6.172;2023-04-23T03:16:00;24.50;;;12.40;;
16037;SDS011;8123;50.906;6.172;2023-04-23T03:18:25;15.37;;;11.47;;
16037;SDS011;8123;50.906;6.172;2023-04-23T03:20:51;18.97;;;11.97;;
16037;SDS011;8123;50.906;6.172;2023-04-23T03:23:17;19.07;;;11.90;;
16037;SDS011;8123;50.906;6.172;2023-04-23T03:25:42;16.00;;;12.00;;
16037;SDS011;8123;50.906;6.172;2023-04-23T03:28:08;18.03;;;11.30;;
16037;SDS011;8123;50.906;6.172;2023-04-23T03:30:33;18.27;;;12.97;;
16037;SDS011;8123;50.906;6.172;2023-04-23T03:32:59;16.30;;;11.57;;
16037;SDS011;8123;50.906;6.172;2023-04-23T03:35:26;18.00;;;11.37;;
16037;SDS011;8123;50.906;6.172;2023-04-23T03:37:52;21.73;;;11.70;;
16037;SDS011;8123;50.906;6.172;2023-04-23T03:40:18;13.73;;;11.10;;
16037;SDS011;8123;50.906;6.172;2023-04-23T03:42:44;15.10;;;10.87;;
16037;SDS011;8123;50.906;6.172;2023-04-23T03:45:10;13.23;;;10.50;;
16037;SDS011;8123;50.906;6.172;2023-04-23T03:47:37;13.70;;;9.70;;
16037;SDS011;8123;50.906;6.172;2023-04-23T03:50:03;13.13;;;10.20;;
16037;SDS011;8123;50.906;6.172;2023-04-23T03:52:30;14.80;;;10.17;;
16037;SDS011;8123;50.906;6.172;2023-04-23T03:54:56;14.93;;;10.10;;
16037;SDS011;8123;50.906;6.172;2023-04-23T03:57:22;13.50;;;9.40;;
16037;SDS011;8123;50.906;6.172;2023-04-23T03:59:47;11.57;;;8.97;;
16037;SDS011;8123;50.906;6.172;2023-04-23T04:02:13;14.40;;;9.67;;
16037;SDS011;8123;50.906;6.172;2023-04-23T04:04:38;14.77;;;8.50;;
16037;SDS011;8123;50.906;6.172;2023-04-23T04:07:06;12.00;;;9.40;;
16037;SDS011;8123;50.906;6.172;2023-04-23T04:09:32;12.90;;;9.30;;
16037;SDS011;8123;50.906;6.172;2023-04-23T04:11:58;10.77;;;8.67;;
16037;SDS011;8123;50.906;6.172;2023-04-23T04:14:23;11.37;;;8.27;;
16037;SDS011;8123;50.906;6.172;2023-04-23T04:16:49;12.53;;;9.57;;
16037;SDS011;8123;50.906;6.172;2023-04-23T04:19:14;12.83;;;9.00;;
16037;SDS011;8123;50.906;6.172;2023-04-23T04:21:40;9.70;;;8.20;;
16037;SDS011;8123;50.906;6.172;2023-04-23T04:24:06;11.40;;;8.27;;
16037;SDS011;8123;50.906;6.172;2023-04-23T04:26:31;13.67;;;8.80;;
16037;SDS011;8123;50.906;6.172;2023-04-23T04:28:58;10.53;;;8.90;;
16037;SDS011;8123;50.906;6.172;2023-04-23T04:31:25;11.47;;;9.23;;
16037;SDS011;8123;50.906;6.172;2023-04-23T04:33:53;8.90;;;8.00;;
16037;SDS011;8123;50.906;6.172;2023-04-23T04:36:19;13.00;;;9.20;;
16037;SDS011;8123;50.906;6.172;2023-04-23T04:38:45;13.40;;;7.90;;
16037;SDS011;8123;50.906;6.172;2023-04-23T04:41:11;13.10;;;8.80;;
16037;SDS011;8123;50.906;6.172;2023-04-23T04:43:37;13.83;;;8.73;;
16037;SDS011;8123;50.906;6.172;2023-04-23T04:46:04;11.27;;;8.50;;
16037;SDS011;8123;50.906;6.172;2023-04-23T04:48:30;10.50;;;8.23;;
16037;SDS011;8123;50.906;6.172;2023-04-23T04:50:55;13.13;;;8.27;;
16037;SDS011;8123;50.906;6.172;2023-04-23T04:53:21;9.33;;;7.90;;
16037;SDS011;8123;50.906;6.172;2023-04-23T04:55:47;9.83;;;7.67;;
16037;SDS011;8123;50.906;6.172;2023-04-23T04:58:13;8.43;;;7.40;;
16037;SDS011;8123;50.906;6.172;2023-04-23T05:00:39;9.20;;;7.63;;
16037;SDS011;8123;50.906;6.172;2023-04-23T05:03:04;13.87;;;8.83;;
16037;SDS011;8123;50.906;6.172;2023-04-23T05:05:31;11.93;;;8.40;;
16037;SDS011;8123;50.906;6.172;2023-04-23T05:07:57;8.93;;;7.30;;
16037;SDS011;8123;50.906;6.172;2023-04-23T05:10:28;9.37;;;7.40;;
16037;SDS011;8123;50.906;6.172;2023-04-23T05:12:57;9.73;;;7.90;;
16037;SDS011;8123;50.906;6.172;2023-04-23T05:15:23;12.40;;;8.40;;
16037;SDS011;8123;50.906;6.172;2023-04-23T05:17:49;10.70;;;8.57;;
16037;SDS011;8123;50.906;6.172;2023-04-23T05:20:17;8.90;;;7.27;;
16037;SDS011;8123;50.906;6.172;2023-04-23T05:22:43;7.77;;;7.00;;
16037;SDS011;8123;50.906;6.172;2023-04-23T05:25:09;10.53;;;7.10;;
16037;SDS011;8123;50.906;6.172;2023-04-23T05:27:38;12.50;;;7.37;;
16037;SDS011;8123;50.906;6.172;2023-04-23T05:30:05;10.07;;;7.33;;
16037;SDS011;8123;50.906;6.172;2023-04-23T05:32:33;9.70;;;7.60;;
16037;SDS011;8123;50.906;6.172;2023-04-23T05:35:00;12.40;;;7.13;;
16037;SDS011;8123;50.906;6.172;2023-04-23T05:37:27;9.23;;;6.90;;
16037;SDS011;8123;50.906;6.172;2023-04-23T05:39:53;9.53;;;7.10;;
16037;SDS011;8123;50.906;6.172;2023-04-23T05:42:18;11.37;;;8.33;;
16037;SDS011;8123;50.906;6.172;2023-04-23T05:44:44;10.60;;;7.60;;
16037;SDS011;8123;50.906;6.172;2023-04-23T05:47:11;8.90;;;7.73;;
16037;SDS011;8123;50.906;6.172;2023-04-23T05:49:37;8.40;;;5.97;;
16037;SDS011;8123;50.906;6.172;2023-04-23T05:52:03;8.40;;;7.00;;
16037;SDS011;8123;50.906;6.172;2023-04-23T05:54:28;9.13;;;7.83;;
16037;SDS011;8123;50.906;6.172;2023-04-23T05:56:54;9.07;;;6.80;;
16037;SDS011;8123;50.906;6.172;2023-04-23T05:59:20;9.17;;;6.20;;
16037;SDS011;8123;50.906;6.172;2023-04-23T06:01:46;8.13;;;7.27;;
16037;SDS011;8123;50.906;6.172;2023-04-23T06:04:12;8.30;;;7.00;;
16037;SDS011;8123;50.906;6.172;2023-04-23T06:06:38;7.00;;;5.73;;
16037;SDS011;8123;50.906;6.172;2023-04-23T06:09:04;6.83;;;6.27;;
16037;SDS011;8123;50.906;6.172;2023-04-23T06:11:31;9.00;;;6.73;;
16037;SDS011;8123;50.906;6.172;2023-04-23T06:13:57;16.33;;;7.37;;
16037;SDS011;8123;50.906;6.172;2023-04-23T06:16:23;11.47;;;6.80;;
16037;SDS011;8123;50.906;6.172;2023-04-23T06:18:49;8.53;;;6.30;;
16037;SDS011;8123;50.906;6.172;2023-04-23T06:21:15;12.77;;;6.93;;
16037;SDS011;8123;50.906;6.172;2023-04-23T06:23:41;10.40;;;6.93;;
16037;SDS011;8123;50.906;6.172;2023-04-23T06:26:06;8.30;;;7.37;;
16037;SDS011;8123;50.906;6.172;2023-04-23T06:28:32;6.60;;;5.63;;
16037;SDS011;8123;50.906;6.172;2023-04-23T06:30:58;15.23;;;7.63;;
16037;SDS011;8123;50.906;6.172;2023-04-23T06:33:24;7.73;;;7.00;;
16037;SDS011;8123;50.906;6.172;2023-04-23T06:35:49;9.77;;;7.60;;
16037;SDS011;8123;50.906;6.172;2023-04-23T06:38:16;6.10;;;5.50;;
16037;SDS011;8123;50.906;6.172;2023-04-23T06:40:42;10.43;;;5.93;;
16037;SDS011;8123;50.906;6.172;2023-04-23T06:43:08;11.67;;;6.10;;
16037;SDS011;8123;50.906;6.172;2023-04-23T06:45:34;9.80;;;6.83;;
16037;SDS011;8123;50.906;6.172;2023-04-23T06:48:00;8.27;;;6.33;;
16037;SDS011;8123;50.906;6.172;2023-04-23T06:50:25;10.63;;;6.30;;
16037;SDS011;8123;50.906;6.172;2023-04-23T06:52:51;11.73;;;5.70;;
16037;SDS011;8123;50.906;6.172;2023-04-23T06:55:17;11.83;;;5.33;;
16037;SDS011;8123;50.906;6.172;2023-04-23T06:57:44;11.03;;;6.67;;
16037;SDS011;8123;50.906;6.172;2023-04-23T07:00:10;5.63;;;5.07;;
16037;SDS011;8123;50.906;6.172;2023-04-23T07:02:36;11.57;;;4.90;;
16037;SDS011;8123;50.906;6.172;2023-04-23T07:05:02;8.00;;;4.70;;
16037;SDS011;8123;50.906;6.172;2023-04-23T07:07:28;8.23;;;5.53;;
16037;SDS011;8123;50.906;6.172;2023-04-23T07:09:54;8.70;;;5.30;;
16037;SDS011;8123;50.906;6.172;2023-04-23T07:12:19;6.07;;;4.47;;
16037;SDS011;8123;50.906;6.172;2023-04-23T07:14:45;12.20;;;4.80;;
16037;SDS011;8123;50.906;6.172;2023-04-23T07:17:11;8.70;;;4.90;;
16037;SDS011;8123;50.906;6.172;2023-04-23T07:19:36;13.80;;;4.87;;
16037;SDS011;8123;50.906;6.172;2023-04-23T07:22:02;5.80;;;4.20;;
16037;SDS011;8123;50.906;6.172;2023-04-23T07:24:28;8.47;;;4.83;;
16037;SDS011;8123;50.906;6.172;2023-04-23T07:26:54;5.50;;;4.27;;
16037;SDS011;8123;50.906;6.172;2023-04-23T07:29:19;4.60;;;3.77;;
16037;SDS011;8123;50.906;6.172;2023-04-23T07:31:45;7.83;;;3.63;;
16037;SDS011;8123;50.906;6.172;2023-04-23T07:34:12;12.33;;;4.70;;
16037;SDS011;8123;50.906;6.172;2023-04-23T07:36:38;7.80;;;3.60;;
16037;SDS011;8123;50.906;6.172;2023-04-23T07:39:03;9.47;;;4.53;;
16037;SDS011;8123;50.906;6.172;2023-04-23T07:41:30;6.97;;;4.00;;
16037;SDS011;8123;50.906;6.172;2023-04-23T07:43:56;7.57;;;3.90;;
16037;SDS011;8123;50.906;6.172;2023-04-23T07:46:22;7.03;;;3.80;;
16037;SDS011;8123;50.906;6.172;2023-04-23T07:48:47;6.47;;;3.73;;
16037;SDS011;8123;50.906;6.172;2023-04-23T07:51:13;8.47;;;4.03;;
16037;SDS011;8123;50.906;6.172;2023-04-23T07:53:38;6.60;;;3.73;;
16037;SDS011;8123;50.906;6.172;2023-04-23T07:56:04;9.70;;;3.37;;
16037;SDS011;8123;50.906;6.172;2023-04-23T07:58:30;5.80;;;3.80;;
16037;SDS011;8123;50.906;6.172;2023-04-23T08:00:57;13.57;;;7.33;;
16037;SDS011;8123;50.906;6.172;2023-04-23T08:03:22;8.63;;;3.83;;
16037;SDS011;8123;50.906;6.172;2023-04-23T08:05:49;4.13;;;3.13;;
16037;SDS011;8123;50.906;6.172;2023-04-23T08:08:15;18.13;;;3.67;;
16037;SDS011;8123;50.906;6.172;2023-04-23T08:10:41;6.80;;;3.43;;
16037;SDS011;8123;50.906;6.172;2023-04-23T08:13:06;7.97;;;3.27;;
16037;SDS011;8123;50.906;6.172;2023-04-23T08:15:32;6.53;;;2.43;;
16037;SDS011;8123;50.906;6.172;2023-04-23T08:17:58;7.70;;;3.20;;
16037;SDS011;8123;50.906;6.172;2023-04-23T08:20:24;7.97;;;2.77;;
16037;SDS011;8123;50.906;6.172;2023-04-23T08:22:50;10.80;;;2.30;;
16037;SDS011;8123;50.906;6.172;2023-04-23T08:25:17;7.67;;;3.63;;
16037;SDS011;8123;50.906;6.172;2023-04-23T08:27:44;6.73;;;3.00;;
16037;SDS011;8123;50.906;6.172;2023-04-23T08:30:10;3.40;;;2.70;;
16037;SDS011;8123;50.906;6.172;2023-04-23T08:32:37;9.40;;;2.77;;
16037;SDS011;8123;50.906;6.172;2023-04-23T08:35:04;8.53;;;2.93;;
16037;SDS011;8123;50.906;6.172;2023-04-23T08:37:30;6.83;;;2.83;;
16037;SDS011;8123;50.906;6.172;2023-04-23T08:39:55;11.10;;;2.80;;
16037;SDS011;8123;50.906;6.172;2023-04-23T08:42:38;3.20;;;2.40;;
16037;SDS011;8123;50.906;6.172;2023-04-23T08:45:09;3.33;;;2.30;;
16037;SDS011;8123;50.906;6.172;2023-04-23T08:47:35;9.07;;;2.87;;
16037;SDS011;8123;50.906;6.172;2023-04-23T08:50:07;10.73;;;2.93;;
16037;SDS011;8123;50.906;6.172;2023-04-23T08:52:38;7.33;;;2.63;;
16037;SDS011;8123;50.906;6.172;2023-04-23T08:55:06;6.80;;;3.47;;
16037;SDS011;8123;50.906;6.172;2023-04-23T08:57:37;2.80;;;2.40;;
16037;SDS011;8123;50.906;6.172;2023-04-23T09:00:04;6.53;;;3.13;;
16037;SDS011;8123;50.906;6.172;2023-04-23T09:02:33;6.10;;;2.90;;
16037;SDS011;8123;50.906;6.172;2023-04-23T09:05:01;6.40;;;3.27;;
16037;SDS011;8123;50.906;6.172;2023-04-23T09:07:28;5.50;;;2.30;;
16037;SDS011;8123;50.906;6.172;2023-04-23T09:09:54;3.00;;;2.80;;
16037;SDS011;8123;50.906;6.172;2023-04-23T09:12:20;11.50;;;2.40;;
16037;SDS011;8123;50.906;6.172;2023-04-23T09:14:47;5.30;;;2.20;;
16037;SDS011;8123;50.906;6.172;2023-04-23T09:17:14;4.83;;;2.20;;
16037;SDS011;8123;50.906;6.172;2023-04-23T09:19:43;13.13;;;2.13;;
16037;SDS011;8123;50.906;6.172;2023-04-23T09:22:10;2.60;;;2.40;;
16037;SDS011;8123;50.906;6.172;2023-04-23T09:24:36;3.13;;;2.30;;
16037;SDS011;8123;50.906;6.172;2023-04-23T09:27:01;2.83;;;2.10;;
16037;SDS011;8123;50.906;6.172;2023-04-23T09:29:27;2.70;;;2.10;;
16037;SDS011;8123;50.906;6.172;2023-04-23T09:32:02;10.63;;;4.10;;
16037;SDS011;8123;50.906;6.172;2023-04-23T09:34:33;3.20;;;2.83;;
16037;SDS011;8123;50.906;6.172;2023-04-23T09:37:03;5.03;;;2.33;;
16037;SDS011;8123;50.906;6.172;2023-04-23T09:39:31;6.53;;;3.03;;
16037;SDS011;8123;50.906;6.172;2023-04-23T09:42:03;5.00;;;3.47;;
16037;SDS011;8123;50.906;6.172;2023-04-23T09:44:32;9.97;;;4.63;;
16037;SDS011;8123;50.906;6.172;2023-04-23T09:47:05;5.27;;;2.40;;
16037;SDS011;8123;50.906;6.172;2023-04-23T09:49:45;9.00;;;2.93;;
16037;SDS011;8123;50.906;6.172;2023-04-23T09:52:11;4.40;;;2.20;;
16037;SDS011;8123;50.906;6.172;2023-04-23T09:54:37;5.33;;;1.93;;
16037;SDS011;8123;50.906;6.172;2023-04-23T09:57:03;4.53;;;1.90;;
16037;SDS011;8123;50.906;6.172;2023-04-23T09:59:32;5.60;;;2.30;;
16037;SDS011;8123;50.906;6.172;2023-04-23T10:02:03;5.63;;;2.20;;
16037;SDS011;8123;50.906;6.172;2023-04-23T10:04:30;6.00;;;2.77;;
16037;SDS011;8123;50.906;6.172;2023-04-23T10:06:58;7.60;;;2.47;;
16037;SDS011;8123;50.906;6.172;2023-04-23T10:09:29;3.23;;;1.80;;
16037;SDS011;8123;50.906;6.172;2023-04-23T10:11:58;2.23;;;1.90;;
16037;SDS011;8123;50.906;6.172;2023-04-23T10:14:26;5.20;;;2.50;;
16037;SDS011;8123;50.906;6.172;2023-04-23T10:16:55;7.83;;;2.20;;
16037;SDS011;8123;50.906;6.172;2023-04-23T10:19:26;6.03;;;2.23;;
16037;SDS011;8123;50.906;6.172;2023-04-23T10:21:54;3.30;;;1.80;;
16037;SDS011;8123;50.906;6.172;2023-04-23T10:24:24;12.00;;;2.20;;
16037;SDS011;8123;50.906;6.172;2023-04-23T10:26:58;6.50;;;1.87;;
16037;SDS011;8123;50.906;6.172;2023-04-23T10:29:27;4.20;;;1.73;;
16037;SDS011;8123;50.906;6.172;2023-04-23T10:32:01;9.47;;;2.10;;
16037;SDS011;8123;50.906;6.172;2023-04-23T10:34:28;2.70;;;2.00;;
16037;SDS011;8123;50.906;6.172;2023-04-23T10:36:55;4.70;;;1.50;;
16037;SDS011;8123;50.906;6.172;2023-04-23T10:39:23;3.17;;;2.30;;
16037;SDS011;8123;50.906;6.172;2023-04-23T10:41:51;1.90;;;1.80;;
16037;SDS011;8123;50.906;6.172;2023-04-23T10:44:19;18.30;;;2.83;;
16037;SDS011;8123;50.906;6.172;2023-04-23T10:46:52;7.33;;;2.03;;
16037;SDS011;8123;50.906;6.172;2023-04-23T10:49:18;3.33;;;2.03;;
16037;SDS011;8123;50.906;6.172;2023-04-23T10:51:47;3.10;;;1.70;;
16037;SDS011;8123;50.906;6.172;2023-04-23T10:54:13;3.93;;;2.30;;
16037;SDS011;8123;50.906;6.172;2023-04-23T10:56:40;8.00;;;1.90;;
16037;SDS011;8123;50.906;6.172;2023-04-23T10:59:09;5.77;;;2.00;;
16037;SDS011;8123;50.906;6.172;2023-04-23T11:01:46;4.50;;;1.80;;
16037;SDS011;8123;50.906;6.172;2023-04-23T11:04:19;3.03;;;1.90;;
16037;SDS011;8123;50.906;6.172;2023-04-23T11:11:53;2.50;;;2.00;;
16037;SDS011;8123;50.906;6.172;2023-04-23T11:14:19;5.40;;;2.37;;
16037;SDS011;8123;50.906;6.172;2023-04-23T11:16:57;4.33;;;2.37;;
16037;SDS011;8123;50.906;6.172;2023-04-23T11:19:23;2.97;;;2.17;;
16037;SDS011;8123;50.906;6.172;2023-04-23T11:26:56;3.33;;;2.33;;
16037;SDS011;8123;50.906;6.172;2023-04-23T11:29:23;4.90;;;2.20;;
16037;SDS011;8123;50.906;6.172;2023-04-23T11:31:51;5.93;;;1.83;;
16037;SDS011;8123;50.906;6.172;2023-04-23T11:34:17;1.90;;;1.67;;
16037;SDS011;8123;50.906;6.172;2023-04-23T11:36:45;4.73;;;2.43;;
16037;SDS011;8123;50.906;6.172;2023-04-23T11:39:13;4.70;;;1.77;;
16037;SDS011;8123;50.906;6.172;2023-04-23T11:41:39;10.03;;;2.13;;
16037;SDS011;8123;50.906;6.172;2023-04-23T11:44:06;2.00;;;1.80;;
16037;SDS011;8123;50.906;6.172;2023-04-23T11:46:32;2.77;;;2.50;;
16037;SDS011;8123;50.906;6.172;2023-04-23T11:48:58;5.60;;;1.47;;
16037;SDS011;8123;50.906;6.172;2023-04-23T11:51:25;3.30;;;1.60;;
16037;SDS011;8123;50.906;6.172;2023-04-23T11:53:51;6.00;;;2.00;;
16037;SDS011;8123;50.906;6.172;2023-04-23T11:56:16;6.60;;;1.90;;
16037;SDS011;8123;50.906;6.172;2023-04-23T11:58:44;4.20;;;2.00;;
16037;SDS011;8123;50.906;6.172;2023-04-23T12:01:10;2.00;;;1.60;;
16037;SDS011;8123;50.906;6.172;2023-04-23T12:03:39;5.07;;;2.13;;
16037;SDS011;8123;50.906;6.172;2023-04-23T12:06:05;13.10;;;1.90;;
16037;SDS011;8123;50.906;6.172;2023-04-23T12:08:32;4.33;;;1.60;;
16037;SDS011;8123;50.906;6.172;2023-04-23T12:11:02;5.20;;;1.57;;
16037;SDS011;8123;50.906;6.172;2023-04-23T12:13:30;2.80;;;1.57;;
16037;SDS011;8123;50.906;6.172;2023-04-23T12:16:00;2.80;;;1.60;;
16037;SDS011;8123;50.906;6.172;2023-04-23T12:18:31;4.60;;;1.73;;
16037;SDS011;8123;50.906;6.172;2023-04-23T12:21:09;3.23;;;1.60;;
16037;SDS011;8123;50.906;6.172;2023-04-23T12:23:37;4.10;;;1.80;;
16037;SDS011;8123;50.906;6.172;2023-04-23T12:26:08;2.63;;;1.73;;
16037;SDS011;8123;50.906;6.172;2023-04-23T12:29:12;5.70;;;2.97;;
16037;SDS011;8123;50.906;6.172;2023-04-23T12:31:31;6.93;;;1.70;;
16037;SDS011;8123;50.906;6.172;2023-04-23T12:36:30;5.30;;;1.57;;
16037;SDS011;8123;50.906;6.172;2023-04-23T12:41:54;2.43;;;2.20;;
16037;SDS011;8123;50.906;6.172;2023-04-23T12:44:24;3.57;;;1.77;;
16037;SDS011;8123;50.906;6.172;2023-04-23T12:47:08;4.37;;;1.80;;
16037;SDS011;8123;50.906;6.172;2023-04-23T12:49:37;2.33;;;1.63;;
16037;SDS011;8123;50.906;6.172;2023-04-23T12:52:04;2.53;;;1.57;;
16037;SDS011;8123;50.906;6.172;2023-04-23T12:54:31;3.27;;;1.80;;
16037;SDS011;8123;50.906;6.172;2023-04-23T12:57:01;5.83;;;1.80;;
16037;SDS011;8123;50.906;6.172;2023-04-23T12:59:27;3.10;;;1.70;;
16037;SDS011;8123;50.906;6.172;2023-04-23T13:01:53;1.37;;;1.27;;
16037;SDS011;8123;50.906;6.172;2023-04-23T13:04:19;5.93;;;2.00;;
16037;SDS011;8123;50.906;6.172;2023-04-23T13:06:44;3.27;;;1.80;;
16037;SDS011;8123;50.906;6.172;2023-04-23T13:09:10;1.53;;;1.40;;
16037;SDS011;8123;50.906;6.172;2023-04-23T13:11:39;6.00;;;1.97;;
16037;SDS011;8123;50.906;6.172;2023-04-23T13:14:06;2.07;;;1.97;;
16037;SDS011;8123;50.906;6.172;2023-04-23T13:16:32;10.93;;;2.20;;
16037;SDS011;8123;50.906;6.172;2023-04-23T13:18:58;3.20;;;1.60;;
16037;SDS011;8123;50.906;6.172;2023-04-23T13:21:25;7.87;;;1.60;;
16037;SDS011;8123;50.906;6.172;2023-04-23T13:23:51;7.63;;;1.97;;
16037;SDS011;8123;50.906;6.172;2023-04-23T13:26:17;7.27;;;2.37;;
16037;SDS011;8123;50.906;6.172;2023-04-23T13:28:43;8.90;;;2.27;;
16037;SDS011;8123;50.906;6.172;2023-04-23T13:31:08;2.07;;;1.70;;
16037;SDS011;8123;50.906;6.172;2023-04-23T13:33:36;1.80;;;1.53;;
16037;SDS011;8123;50.906;6.172;2023-04-23T13:36:03;4.60;;;2.13;;
16037;SDS011;8123;50.906;6.172;2023-04-23T13:38:29;4.00;;;2.03;;
16037;SDS011;8123;50.906;6.172;2023-04-23T13:40:55;3.00;;;1.93;;
16037;SDS011;8123;50.906;6.172;2023-04-23T13:43:21;1.70;;;1.60;;
16037;SDS011;8123;50.906;6.172;2023-04-23T13:45:47;4.23;;;2.13;;
16037;SDS011;8123;50.906;6.172;2023-04-23T13:48:13;3.27;;;1.70;;
16037;SDS011;8123;50.906;6.172;2023-04-23T13:50:39;2.47;;;2.23;;
16037;SDS011;8123;50.906;6.172;2023-04-23T13:53:05;5.97;;;2.40;;
16037;SDS011;8123;50.906;6.172;2023-04-23T13:55:32;6.90;;;3.73;;
16037;SDS011;8123;50.906;6.172;2023-04-23T13:57:58;4.30;;;2.73;;
16037;SDS011;8123;50.906;6.172;2023-04-23T14:00:25;8.23;;;2.83;;
16037;SDS011;8123;50.906;6.172;2023-04-23T14:02:52;4.10;;;3.00;;
16037;SDS011;8123;50.906;6.172;2023-04-23T14:05:17;6.93;;;2.43;;
16037;SDS011;8123;50.906;6.172;2023-04-23T14:07:43;4.73;;;2.60;;
16037;SDS011;8123;50.906;6.172;2023-04-23T14:10:09;5.67;;;2.77;;
16037;SDS011;8123;50.906;6.172;2023-04-23T14:12:36;2.27;;;2.07;;
16037;SDS011;8123;50.906;6.172;2023-04-23T14:15:03;3.77;;;2.10;;
16037;SDS011;8123;50.906;6.172;2023-04-23T14:17:30;13.43;;;2.10;;
16037;SDS011;8123;50.906;6.172;2023-04-23T14:19:55;4.70;;;2.57;;
16037;SDS011;8123;50.906;6.172;2023-04-23T14:22:21;3.03;;;2.73;;
16037;SDS011;8123;50.906;6.172;2023-04-23T14:24:50;12.43;;;2.87;;
16037;SDS011;8123;50.906;6.172;2023-04-23T14:27:21;4.77;;;2.70;;
16037;SDS011;8123;50.906;6.172;2023-04-23T14:29:51;8.43;;;3.00;;
16037;SDS011;8123;50.906;6.172;2023-04-23T14:32:21;5.27;;;2.37;;
16037;SDS011;8123;50.906;6.172;2023-04-23T14:34:47;5.23;;;2.80;;
16037;SDS011;8123;50.906;6.172;2023-04-23T14:37:13;3.03;;;2.47;;
16037;SDS011;8123;50.906;6.172;2023-04-23T14:39:41;4.27;;;2.63;;
16037;SDS011;8123;50.906;6.172;2023-04-23T14:42:07;8.67;;;2.97;;
16037;SDS011;8123;50.906;6.172;2023-04-23T14:44:32;5.50;;;3.00;;
16037;SDS011;8123;50.906;6.172;2023-04-23T14:46:58;7.23;;;2.97;;
16037;SDS011;8123;50.906;6.172;2023-04-23T14:49:24;2.70;;;2.17;;
16037;SDS011;8123;50.906;6.172;2023-04-23T14:51:50;8.43;;;3.23;;
16037;SDS011;8123;50.906;6.172;2023-04-23T14:54:23;3.80;;;3.20;;
16037;SDS011;8123;50.906;6.172;2023-04-23T14:56:51;3.50;;;2.70;;
16037;SDS011;8123;50.906;6.172;2023-04-23T14:59:17;5.53;;;3.37;;
16037;SDS011;8123;50.906;6.172;2023-04-23T15:01:45;3.87;;;2.97;;
16037;SDS011;8123;50.906;6.172;2023-04-23T15:04:10;6.27;;;4.10;;
16037;SDS011;8123;50.906;6.172;2023-04-23T15:06:36;7.60;;;3.20;;